sensor_id;sensor_type;location;lat;lon;timestamp;temperature;humidity
8780;DHT22;62328;51.19929245;4.42130175;2022-09-09T00:00:23;16.50;99.90
8780;DHT22;62328;51.19929245;4.42130175;2022-09-09T00:03:00;16.50;99.90
8780;DHT22;62328;51.19929245;4.42130175;2022-09-09T00:05:32;16.50;99.90
8780;DHT22;62328;51.19929245;4.42130175;2022-09-09T00:08:08;16.50;99.90
8780;DHT22;62328;51.19929245;4.42130175;2022-09-09T00:10:40;16.50;99.90
8780;DHT22;62328;51.19929245;4.42130175;2022-09-09T00:13:15;16.50;99.90
8780;DHT22;62328;51.19929245;4.42130175;2022-09-09T00:15:50;16.50;99.90
8780;DHT22;62328;51.19929245;4.42130175;2022-09-09T00:18:24;16.50;99.90
8780;DHT22;62328;51.19929245;4.42130175;2022-09-09T00:20:58;16.50;99.90
8780;DHT22;62328;51.19929245;4.42130175;2022-09-09T00:23:34;16.50;99.90
8780;DHT22;62328;51.19929245;4.42130175;2022-09-09T00:26:07;16.50;99.90
8780;DHT22;62328;51.19929245;4.42130175;2022-09-09T00:28:42;16.50;99.90
8780;DHT22;62328;51.19929245;4.42130175;2022-09-09T00:31:14;16.40;99.90
8780;DHT22;62328;51.19929245;4.42130175;2022-09-09T00:33:43;16.40;99.90
8780;DHT22;62328;51.19929245;4.42130175;2022-09-09T00:36:13;16.40;99.90
8780;DHT22;62328;51.19929245;4.42130175;2022-09-09T00:38:45;16.40;99.90
8780;DHT22;62328;51.19929245;4.42130175;2022-09-09T00:41:19;16.40;99.90
8780;DHT22;62328;51.19929245;4.42130175;2022-09-09T00:43:56;16.40;99.90
8780;DHT22;62328;51.19929245;4.42130175;2022-09-09T00:46:45;16.40;99.90
8780;DHT22;62328;51.19929245;4.42130175;2022-09-09T00:49:22;16.40;99.90
8780;DHT22;62328;51.19929245;4.42130175;2022-09-09T00:52:02;16.40;99.90
8780;DHT22;62328;51.19929245;4.42130175;2022-09-09T00:54:43;16.50;99.90
8780;DHT22;62328;51.19929245;4.42130175;2022-09-09T00:57:23;16.40;99.90
8780;DHT22;62328;51.19929245;4.42130175;2022-09-09T00:59:58;16.40;99.90
8780;DHT22;62328;51.19929245;4.42130175;2022-09-09T01:02:31;16.40;99.90
8780;DHT22;62328;51.19929245;4.42130175;2022-09-09T01:05:05;16.40;99.90
8780;DHT22;62328;51.19929245;4.42130175;2022-09-09T01:07:33;16.50;99.90
8780;DHT22;62328;51.19929245;4.42130175;2022-09-09T01:10:06;16.40;99.90
8780;DHT22;62328;51.19929245;4.42130175;2022-09-09T01:12:40;16.50;99.90
8780;DHT22;62328;51.19929245;4.42130175;2022-09-09T01:15:12;16.40;99.90
8780;DHT22;62328;51.19929245;4.42130175;2022-09-09T01:17:49;16.40;99.90
8780;DHT22;62328;51.19929245;4.42130175;2022-09-09T01:20:22;16.40;99.90
8780;DHT22;62328;51.19929245;4.42130175;2022-09-09T01:26:12;16.50;99.90
8780;DHT22;62328;51.19929245;4.42130175;2022-09-09T01:28:40;16.40;99.90
8780;DHT22;62328;51.19929245;4.42130175;2022-09-09T01:31:13;16.40;99.90
8780;DHT22;62328;51.19929245;4.42130175;2022-09-09T01:33:41;16.30;99.90
8780;DHT22;62328;51.19929245;4.42130175;2022-09-09T01:36:12;16.40;99.90
8780;DHT22;62328;51.19929245;4.42130175;2022-09-09T01:38:39;16.40;99.90
8780;DHT22;62328;51.19929245;4.42130175;2022-09-09T01:41:08;16.40;99.90
8780;DHT22;62328;51.19929245;4.42130175;2022-09-09T01:43:35;16.30;99.90
8780;DHT22;62328;51.19929245;4.42130175;2022-09-09T01:46:02;16.30;99.90
8780;DHT22;62328;51.19929245;4.42130175;2022-09-09T01:48:29;16.30;99.90
8780;DHT22;62328;51.19929245;4.42130175;2022-09-09T01:50:56;16.30;99.90
8780;DHT22;62328;51.19929245;4.42130175;2022-09-09T01:53:24;16.30;99.90
8780;DHT22;62328;51.19929245;4.42130175;2022-09-09T01:56:10;16.30;99.90
8780;DHT22;62328;51.19929245;4.42130175;2022-09-09T01:58:47;16.30;99.90
8780;DHT22;62328;51.19929245;4.42130175;2022-09-09T02:01:24;16.30;99.90
8780;DHT22;62328;51.19929245;4.42130175;2022-09-09T02:03:57;16.20;99.90
8780;DHT22;62328;51.19929245;4.42130175;2022-09-09T02:06:28;16.20;99.90
8780;DHT22;62328;51.19929245;4.42130175;2022-09-09T02:08:57;16.20;99.90
8780;DHT22;62328;51.19929245;4.42130175;2022-09-09T02:11:29;16.20;99.90
8780;DHT22;62328;51.19929245;4.42130175;2022-09-09T02:14:00;16.20;99.90
8780;DHT22;62328;51.19929245;4.42130175;2022-09-09T02:16:32;16.30;99.90
8780;DHT22;62328;51.19929245;4.42130175;2022-09-09T02:19:06;16.30;99.90
8780;DHT22;62328;51.19929245;4.42130175;2022-09-09T02:21:35;16.30;99.90
8780;DHT22;62328;51.19929245;4.42130175;2022-09-09T02:24:05;16.20;99.90
8780;DHT22;62328;51.19929245;4.42130175;2022-09-09T02:26:41;16.20;99.90
8780;DHT22;62328;51.19929245;4.42130175;2022-09-09T02:29:13;16.30;99.90
8780;DHT22;62328;51.19929245;4.42130175;2022-09-09T02:31:42;16.20;99.90
8780;DHT22;62328;51.19929245;4.42130175;2022-09-09T02:34:11;16.20;99.90
8780;DHT22;62328;51.19929245;4.42130175;2022-09-09T02:36:40;16.20;99.90
8780;DHT22;62328;51.19929245;4.42130175;2022-09-09T02:39:10;16.20;99.90
8780;DHT22;62328;51.19929245;4.42130175;2022-09-09T02:41:40;16.20;99.90
8780;DHT22;62328;51.19929245;4.42130175;2022-09-09T02:44:10;16.20;99.90
8780;DHT22;62328;51.19929245;4.42130175;2022-09-09T02:47:02;16.20;99.90
8780;DHT22;62328;51.19929245;4.42130175;2022-09-09T02:49:39;16.20;99.90
8780;DHT22;62328;51.19929245;4.42130175;2022-09-09T02:52:11;16.20;99.90
8780;DHT22;62328;51.19929245;4.42130175;2022-09-09T02:54:41;16.20;99.90
8780;DHT22;62328;51.19929245;4.42130175;2022-09-09T02:57:12;16.20;99.90
8780;DHT22;62328;51.19929245;4.42130175;2022-09-09T02:59:39;16.20;99.90
8780;DHT22;62328;51.19929245;4.42130175;2022-09-09T03:02:08;16.20;99.90
8780;DHT22;62328;51.19929245;4.42130175;2022-09-09T03:04:37;16.20;99.90
8780;DHT22;62328;51.19929245;4.42130175;2022-09-09T03:07:04;16.20;99.90
8780;DHT22;62328;51.19929245;4.42130175;2022-09-09T03:09:31;16.20;99.90
8780;DHT22;62328;51.19929245;4.42130175;2022-09-09T03:11:59;16.20;99.90
8780;DHT22;62328;51.19929245;4.42130175;2022-09-09T03:14:27;16.20;99.90
8780;DHT22;62328;51.19929245;4.42130175;2022-09-09T03:16:57;16.20;99.90
8780;DHT22;62328;51.19929245;4.42130175;2022-09-09T03:19:26;16.20;99.90
8780;DHT22;62328;51.19929245;4.42130175;2022-09-09T03:21:55;16.20;99.90
8780;DHT22;62328;51.19929245;4.42130175;2022-09-09T03:24:22;16.20;99.90
8780;DHT22;62328;51.19929245;4.42130175;2022-09-09T03:26:49;16.20;99.90
8780;DHT22;62328;51.19929245;4.42130175;2022-09-09T03:29:16;16.20;99.90
8780;DHT22;62328;51.19929245;4.42130175;2022-09-09T03:31:45;16.20;99.90
8780;DHT22;62328;51.19929245;4.42130175;2022-09-09T03:34:12;16.20;99.90
8780;DHT22;62328;51.19929245;4.42130175;2022-09-09T03:36:40;16.30;99.90
8780;DHT22;62328;51.19929245;4.42130175;2022-09-09T03:39:07;16.20;99.90
8780;DHT22;62328;51.19929245;4.42130175;2022-09-09T03:41:34;16.20;99.90
8780;DHT22;62328;51.19929245;4.42130175;2022-09-09T03:44:03;16.30;99.90
8780;DHT22;62328;51.19929245;4.42130175;2022-09-09T03:46:30;16.30;99.90
8780;DHT22;62328;51.19929245;4.42130175;2022-09-09T03:48:58;16.30;99.90
8780;DHT22;62328;51.19929245;4.42130175;2022-09-09T03:51:27;16.40;99.90
8780;DHT22;62328;51.19929245;4.42130175;2022-09-09T03:53:54;16.30;99.90
8780;DHT22;62328;51.19929245;4.42130175;2022-09-09T03:56:22;16.30;99.90
8780;DHT22;62328;51.19929245;4.42130175;2022-09-09T03:58:50;16.30;99.90
8780;DHT22;62328;51.19929245;4.42130175;2022-09-09T04:01:17;16.30;99.90
8780;DHT22;62328;51.19929245;4.42130175;2022-09-09T04:03:44;16.30;99.90
8780;DHT22;62328;51.19929245;4.42130175;2022-09-09T04:06:13;16.20;99.90
8780;DHT22;62328;51.19929245;4.42130175;2022-09-09T04:08:40;16.30;99.90
8780;DHT22;62328;51.19929245;4.42130175;2022-09-09T04:11:07;16.30;99.90
8780;DHT22;62328;51.19929245;4.42130175;2022-09-09T04:13:35;16.20;99.90
8780;DHT22;62328;51.19929245;4.42130175;2022-09-09T04:16:06;16.20;99.90
8780;DHT22;62328;51.19929245;4.42130175;2022-09-09T04:18:33;16.30;99.90
8780;DHT22;62328;51.19929245;4.42130175;2022-09-09T04:21:00;16.20;99.90
8780;DHT22;62328;51.19929245;4.42130175;2022-09-09T04:23:30;16.20;99.90
8780;DHT22;62328;51.19929245;4.42130175;2022-09-09T04:26:00;16.20;99.90
8780;DHT22;62328;51.19929245;4.42130175;2022-09-09T04:28:29;16.20;99.90
8780;DHT22;62328;51.19929245;4.42130175;2022-09-09T04:30:56;16.30;99.90
8780;DHT22;62328;51.19929245;4.42130175;2022-09-09T04:33:25;16.30;99.90
8780;DHT22;62328;51.19929245;4.42130175;2022-09-09T04:35:53;16.30;99.90
8780;DHT22;62328;51.19929245;4.42130175;2022-09-09T04:38:20;16.20;99.90
8780;DHT22;62328;51.19929245;4.42130175;2022-09-09T04:40:50;16.30;99.90
8780;DHT22;62328;51.19929245;4.42130175;2022-09-09T04:43:19;16.20;99.90
8780;DHT22;62328;51.19929245;4.42130175;2022-09-09T04:45:47;16.20;99.90
8780;DHT22;62328;51.19929245;4.42130175;2022-09-09T04:48:15;16.20;99.90
8780;DHT22;62328;51.19929245;4.42130175;2022-09-09T04:50:42;16.20;99.90
8780;DHT22;62328;51.19929245;4.42130175;2022-09-09T04:53:09;16.20;99.90
8780;DHT22;62328;51.19929245;4.42130175;2022-09-09T04:55:36;16.30;99.90
8780;DHT22;62328;51.19929245;4.42130175;2022-09-09T04:58:05;16.30;99.90
8780;DHT22;62328;51.19929245;4.42130175;2022-09-09T05:00:33;16.30;99.90
8780;DHT22;62328;51.19929245;4.42130175;2022-09-09T05:03:02;16.30;99.90
8780;DHT22;62328;51.19929245;4.42130175;2022-09-09T05:05:30;16.20;99.90
8780;DHT22;62328;51.19929245;4.42130175;2022-09-09T05:08:01;16.20;99.90
8780;DHT22;62328;51.19929245;4.42130175;2022-09-09T05:10:29;16.30;99.90
8780;DHT22;62328;51.19929245;4.42130175;2022-09-09T05:12:55;16.20;99.90
8780;DHT22;62328;51.19929245;4.42130175;2022-09-09T05:15:24;16.20;99.90
8780;DHT22;62328;51.19929245;4.42130175;2022-09-09T05:17:51;16.20;99.90
8780;DHT22;62328;51.19929245;4.42130175;2022-09-09T05:20:19;16.20;99.90
8780;DHT22;62328;51.19929245;4.42130175;2022-09-09T05:22:47;16.20;99.90
8780;DHT22;62328;51.19929245;4.42130175;2022-09-09T05:25:15;16.20;99.90
8780;DHT22;62328;51.19929245;4.42130175;2022-09-09T05:27:42;16.20;99.90
8780;DHT22;62328;51.19929245;4.42130175;2022-09-09T05:30:10;16.20;99.90
8780;DHT22;62328;51.19929245;4.42130175;2022-09-09T05:32:39;16.20;99.90
8780;DHT22;62328;51.19929245;4.42130175;2022-09-09T05:35:07;16.30;99.90
8780;DHT22;62328;51.19929245;4.42130175;2022-09-09T05:37:33;16.30;99.90
8780;DHT22;62328;51.19929245;4.42130175;2022-09-09T05:40:01;16.30;99.90
8780;DHT22;62328;51.19929245;4.42130175;2022-09-09T05:42:30;16.30;99.90
8780;DHT22;62328;51.19929245;4.42130175;2022-09-09T05:44:57;16.30;99.90
8780;DHT22;62328;51.19929245;4.42130175;2022-09-09T05:47:24;16.30;99.90
8780;DHT22;62328;51.19929245;4.42130175;2022-09-09T05:49:56;16.20;99.90
8780;DHT22;62328;51.19929245;4.42130175;2022-09-09T05:52:23;16.30;99.90
8780;DHT22;62328;51.19929245;4.42130175;2022-09-09T05:54:51;16.30;99.90
8780;DHT22;62328;51.19929245;4.42130175;2022-09-09T05:57:19;16.30;99.90
8780;DHT22;62328;51.19929245;4.42130175;2022-09-09T05:59:46;16.40;99.90
8780;DHT22;62328;51.19929245;4.42130175;2022-09-09T06:02:13;16.40;99.90
8780;DHT22;62328;51.19929245;4.42130175;2022-09-09T06:04:41;16.40;99.90
8780;DHT22;62328;51.19929245;4.42130175;2022-09-09T06:07:10;16.40;99.90
8780;DHT22;62328;51.19929245;4.42130175;2022-09-09T06:09:37;16.50;99.90
8780;DHT22;62328;51.19929245;4.42130175;2022-09-09T06:12:04;16.50;99.90
8780;DHT22;62328;51.19929245;4.42130175;2022-09-09T06:14:31;16.50;99.90
8780;DHT22;62328;51.19929245;4.42130175;2022-09-09T06:16:58;16.40;99.90
8780;DHT22;62328;51.19929245;4.42130175;2022-09-09T06:19:25;16.50;99.90
8780;DHT22;62328;51.19929245;4.42130175;2022-09-09T06:21:52;16.60;99.90
8780;DHT22;62328;51.19929245;4.42130175;2022-09-09T06:24:21;16.60;99.90
8780;DHT22;62328;51.19929245;4.42130175;2022-09-09T06:26:48;16.60;99.90
8780;DHT22;62328;51.19929245;4.42130175;2022-09-09T06:29:15;16.60;99.90
8780;DHT22;62328;51.19929245;4.42130175;2022-09-09T06:31:42;16.70;99.90
8780;DHT22;62328;51.19929245;4.42130175;2022-09-09T06:34:09;16.60;99.90
8780;DHT22;62328;51.19929245;4.42130175;2022-09-09T06:36:38;16.60;99.90
8780;DHT22;62328;51.19929245;4.42130175;2022-09-09T06:39:05;16.60;99.90
8780;DHT22;62328;51.19929245;4.42130175;2022-09-09T06:41:35;16.60;99.90
8780;DHT22;62328;51.19929245;4.42130175;2022-09-09T06:44:04;16.70;99.90
8780;DHT22;62328;51.19929245;4.42130175;2022-09-09T06:46:31;16.70;99.90
8780;DHT22;62328;51.19929245;4.42130175;2022-09-09T06:48:59;16.70;99.90
8780;DHT22;62328;51.19929245;4.42130175;2022-09-09T06:51:27;16.80;99.90
8780;DHT22;62328;51.19929245;4.42130175;2022-09-09T06:53:58;16.80;99.90
8780;DHT22;62328;51.19929245;4.42130175;2022-09-09T06:56:28;16.80;99.90
8780;DHT22;62328;51.19929245;4.42130175;2022-09-09T06:58:59;16.80;99.90
8780;DHT22;62328;51.19929245;4.42130175;2022-09-09T07:01:28;16.80;99.90
8780;DHT22;62328;51.19929245;4.42130175;2022-09-09T07:03:57;16.80;99.90
8780;DHT22;62328;51.19929245;4.42130175;2022-09-09T07:06:27;16.80;99.90
8780;DHT22;62328;51.19929245;4.42130175;2022-09-09T07:08:56;16.80;99.90
8780;DHT22;62328;51.19929245;4.42130175;2022-09-09T07:11:25;16.80;99.90
8780;DHT22;62328;51.19929245;4.42130175;2022-09-09T07:13:53;16.80;99.90
8780;DHT22;62328;51.19929245;4.42130175;2022-09-09T07:16:22;16.80;99.90
8780;DHT22;62328;51.19929245;4.42130175;2022-09-09T07:18:50;16.90;99.90
8780;DHT22;62328;51.19929245;4.42130175;2022-09-09T07:21:18;16.90;99.90
8780;DHT22;62328;51.19929245;4.42130175;2022-09-09T07:23:46;16.90;99.90
8780;DHT22;62328;51.19929245;4.42130175;2022-09-09T07:26:15;17.00;99.90
8780;DHT22;62328;51.19929245;4.42130175;2022-09-09T07:28:42;17.00;99.90
8780;DHT22;62328;51.19929245;4.42130175;2022-09-09T07:31:14;17.00;99.90
8780;DHT22;62328;51.19929245;4.42130175;2022-09-09T07:33:44;17.10;99.90
8780;DHT22;62328;51.19929245;4.42130175;2022-09-09T07:36:14;17.10;99.90
8780;DHT22;62328;51.19929245;4.42130175;2022-09-09T07:38:41;17.20;99.90
8780;DHT22;62328;51.19929245;4.42130175;2022-09-09T07:41:13;17.20;99.90
8780;DHT22;62328;51.19929245;4.42130175;2022-09-09T07:43:44;17.20;99.90
8780;DHT22;62328;51.19929245;4.42130175;2022-09-09T07:46:12;17.20;99.90
8780;DHT22;62328;51.19929245;4.42130175;2022-09-09T07:48:45;17.20;99.90
8780;DHT22;62328;51.19929245;4.42130175;2022-09-09T07:51:15;17.30;99.90
8780;DHT22;62328;51.19929245;4.42130175;2022-09-09T07:53:44;17.30;99.90
8780;DHT22;62328;51.19929245;4.42130175;2022-09-09T07:56:13;17.30;99.90
8780;DHT22;62328;51.19929245;4.42130175;2022-09-09T07:58:42;17.20;99.90
8780;DHT22;62328;51.19929245;4.42130175;2022-09-09T08:01:11;17.20;99.90
8780;DHT22;62328;51.19929245;4.42130175;2022-09-09T08:03:38;17.20;99.90
8780;DHT22;62328;51.19929245;4.42130175;2022-09-09T08:06:10;17.20;99.90
8780;DHT22;62328;51.19929245;4.42130175;2022-09-09T08:08:38;17.20;99.90
8780;DHT22;62328;51.19929245;4.42130175;2022-09-09T08:11:09;17.30;99.90
8780;DHT22;62328;51.19929245;4.42130175;2022-09-09T08:13:37;17.30;99.90
8780;DHT22;62328;51.19929245;4.42130175;2022-09-09T08:16:06;17.30;99.90
8780;DHT22;62328;51.19929245;4.42130175;2022-09-09T08:18:33;17.20;99.90
8780;DHT22;62328;51.19929245;4.42130175;2022-09-09T08:21:13;17.30;99.90
8780;DHT22;62328;51.19929245;4.42130175;2022-09-09T08:23:41;17.30;99.90
8780;DHT22;62328;51.19929245;4.42130175;2022-09-09T08:26:11;17.30;99.90
8780;DHT22;62328;51.19929245;4.42130175;2022-09-09T08:28:38;17.30;99.90
8780;DHT22;62328;51.19929245;4.42130175;2022-09-09T08:31:07;17.30;99.90
8780;DHT22;62328;51.19929245;4.42130175;2022-09-09T08:33:36;17.30;99.90
8780;DHT22;62328;51.19929245;4.42130175;2022-09-09T08:36:04;17.30;99.90
8780;DHT22;62328;51.19929245;4.42130175;2022-09-09T08:38:33;17.30;99.90
8780;DHT22;62328;51.19929245;4.42130175;2022-09-09T08:41:21;17.40;99.90
8780;DHT22;62328;51.19929245;4.42130175;2022-09-09T08:44:01;17.50;99.90
8780;DHT22;62328;51.19929245;4.42130175;2022-09-09T08:46:36;17.50;99.90
8780;DHT22;62328;51.19929245;4.42130175;2022-09-09T08:49:16;17.50;99.90
8780;DHT22;62328;51.19929245;4.42130175;2022-09-09T08:51:45;17.50;99.90
8780;DHT22;62328;51.19929245;4.42130175;2022-09-09T08:54:13;17.60;99.90
8780;DHT22;62328;51.19929245;4.42130175;2022-09-09T08:56:40;17.60;99.90
8780;DHT22;62328;51.19929245;4.42130175;2022-09-09T08:59:11;17.60;99.90
8780;DHT22;62328;51.19929245;4.42130175;2022-09-09T09:01:52;17.70;99.90
8780;DHT22;62328;51.19929245;4.42130175;2022-09-09T09:04:46;17.60;99.90
8780;DHT22;62328;51.19929245;4.42130175;2022-09-09T09:07:24;17.60;99.90
8780;DHT22;62328;51.19929245;4.42130175;2022-09-09T09:10:03;17.60;99.90
8780;DHT22;62328;51.19929245;4.42130175;2022-09-09T09:12:37;17.60;99.90
8780;DHT22;62328;51.19929245;4.42130175;2022-09-09T09:15:14;17.60;99.90
8780;DHT22;62328;51.19929245;4.42130175;2022-09-09T09:17:42;17.50;99.90
8780;DHT22;62328;51.19929245;4.42130175;2022-09-09T09:20:12;17.50;99.90
8780;DHT22;62328;51.19929245;4.42130175;2022-09-09T09:22:47;17.40;99.90
8780;DHT22;62328;51.19929245;4.42130175;2022-09-09T09:25:18;17.40;99.90
8780;DHT22;62328;51.19929245;4.42130175;2022-09-09T09:27:52;17.40;99.90
8780;DHT22;62328;51.19929245;4.42130175;2022-09-09T09:30:22;17.40;99.90
8780;DHT22;62328;51.19929245;4.42130175;2022-09-09T09:32:54;17.40;99.90
8780;DHT22;62328;51.19929245;4.42130175;2022-09-09T09:35:22;17.30;99.90
8780;DHT22;62328;51.19929245;4.42130175;2022-09-09T09:37:49;17.30;99.90
8780;DHT22;62328;51.19929245;4.42130175;2022-09-09T09:40:19;17.40;99.90
8780;DHT22;62328;51.19929245;4.42130175;2022-09-09T09:42:51;17.40;99.90
8780;DHT22;62328;51.19929245;4.42130175;2022-09-09T09:45:27;17.40;99.90
8780;DHT22;62328;51.19929245;4.42130175;2022-09-09T09:47:59;17.30;99.90
8780;DHT22;62328;51.19929245;4.42130175;2022-09-09T09:50:28;17.30;99.90
8780;DHT22;62328;51.19929245;4.42130175;2022-09-09T09:52:56;17.30;99.90
8780;DHT22;62328;51.19929245;4.42130175;2022-09-09T09:55:26;17.30;99.90
8780;DHT22;62328;51.19929245;4.42130175;2022-09-09T09:58:02;17.30;99.90
8780;DHT22;62328;51.19929245;4.42130175;2022-09-09T10:00:29;17.30;99.90
8780;DHT22;62328;51.19929245;4.42130175;2022-09-09T10:02:56;17.30;99.90
8780;DHT22;62328;51.19929245;4.42130175;2022-09-09T10:05:26;17.30;99.90
8780;DHT22;62328;51.19929245;4.42130175;2022-09-09T10:08:02;17.30;99.90
8780;DHT22;62328;51.19929245;4.42130175;2022-09-09T10:10:44;17.30;99.90
8780;DHT22;62328;51.19929245;4.42130175;2022-09-09T10:13:19;17.30;99.90
8780;DHT22;62328;51.19929245;4.42130175;2022-09-09T10:15:55;17.30;99.90
8780;DHT22;62328;51.19929245;4.42130175;2022-09-09T10:18:43;17.30;99.90
8780;DHT22;62328;51.19929245;4.42130175;2022-09-09T10:21:20;17.30;99.90
8780;DHT22;62328;51.19929245;4.42130175;2022-09-09T10:24:04;17.30;99.90
8780;DHT22;62328;51.19929245;4.42130175;2022-09-09T10:26:42;17.30;99.90
8780;DHT22;62328;51.19929245;4.42130175;2022-09-09T10:29:32;17.30;99.90
8780;DHT22;62328;51.19929245;4.42130175;2022-09-09T10:32:14;17.30;99.90
8780;DHT22;62328;51.19929245;4.42130175;2022-09-09T10:34:55;17.40;99.90
8780;DHT22;62328;51.19929245;4.42130175;2022-09-09T10:37:36;17.40;99.90
8780;DHT22;62328;51.19929245;4.42130175;2022-09-09T10:40:20;17.50;99.90
8780;DHT22;62328;51.19929245;4.42130175;2022-09-09T10:42:51;17.50;99.90
8780;DHT22;62328;51.19929245;4.42130175;2022-09-09T10:45:29;17.60;99.90
8780;DHT22;62328;51.19929245;4.42130175;2022-09-09T10:48:14;17.60;99.90
8780;DHT22;62328;51.19929245;4.42130175;2022-09-09T10:50:52;17.60;99.90
8780;DHT22;62328;51.19929245;4.42130175;2022-09-09T10:53:33;17.60;99.90
8780;DHT22;62328;51.19929245;4.42130175;2022-09-09T10:56:06;17.60;99.90
8780;DHT22;62328;51.19929245;4.42130175;2022-09-09T10:58:38;17.60;99.90
8780;DHT22;62328;51.19929245;4.42130175;2022-09-09T11:01:14;17.60;99.90
8780;DHT22;62328;51.19929245;4.42130175;2022-09-09T11:03:53;17.60;99.90
8780;DHT22;62328;51.19929245;4.42130175;2022-09-09T11:06:24;17.80;99.90
8780;DHT22;62328;51.19929245;4.42130175;2022-09-09T11:08:53;17.70;99.90
8780;DHT22;62328;51.19929245;4.42130175;2022-09-09T11:11:26;17.60;99.90
8780;DHT22;62328;51.19929245;4.42130175;2022-09-09T11:13:59;17.70;99.90
8780;DHT22;62328;51.19929245;4.42130175;2022-09-09T11:16:30;17.70;99.90
8780;DHT22;62328;51.19929245;4.42130175;2022-09-09T11:19:03;17.70;99.90
8780;DHT22;62328;51.19929245;4.42130175;2022-09-09T11:21:33;17.80;99.90
8780;DHT22;62328;51.19929245;4.42130175;2022-09-09T11:24:04;17.80;99.90
8780;DHT22;62328;51.19929245;4.42130175;2022-09-09T11:26:39;18.00;99.90
8780;DHT22;62328;51.19929245;4.42130175;2022-09-09T11:32:33;18.20;99.90
8780;DHT22;62328;51.19929245;4.42130175;2022-09-09T11:35:19;18.20;99.90
8780;DHT22;62328;51.19929245;4.42130175;2022-09-09T11:38:12;18.20;99.90
8780;DHT22;62328;51.19929245;4.42130175;2022-09-09T11:40:43;18.20;99.90
8780;DHT22;62328;51.19929245;4.42130175;2022-09-09T11:43:13;18.30;99.90
8780;DHT22;62328;51.19929245;4.42130175;2022-09-09T11:45:42;18.40;99.90
8780;DHT22;62328;51.19929245;4.42130175;2022-09-09T11:48:26;18.40;99.90
8780;DHT22;62328;51.19929245;4.42130175;2022-09-09T11:50:59;18.50;99.90
8780;DHT22;62328;51.19929245;4.42130175;2022-09-09T11:53:26;18.60;99.90
8780;DHT22;62328;51.19929245;4.42130175;2022-09-09T11:56:08;18.60;99.90
8780;DHT22;62328;51.19929245;4.42130175;2022-09-09T11:58:41;18.70;99.90
8780;DHT22;62328;51.19929245;4.42130175;2022-09-09T12:01:36;18.80;99.90
8780;DHT22;62328;51.19929245;4.42130175;2022-09-09T12:04:20;18.80;99.90
8780;DHT22;62328;51.19929245;4.42130175;2022-09-09T12:06:54;18.90;99.90
8780;DHT22;62328;51.19929245;4.42130175;2022-09-09T12:09:27;19.00;99.90
8780;DHT22;62328;51.19929245;4.42130175;2022-09-09T12:12:07;19.10;99.90
8780;DHT22;62328;51.19929245;4.42130175;2022-09-09T12:14:37;19.30;99.90
8780;DHT22;62328;51.19929245;4.42130175;2022-09-09T12:17:18;19.30;99.90
8780;DHT22;62328;51.19929245;4.42130175;2022-09-09T12:19:47;19.40;99.90
8780;DHT22;62328;51.19929245;4.42130175;2022-09-09T12:22:22;19.30;99.90
8780;DHT22;62328;51.19929245;4.42130175;2022-09-09T12:24:56;19.30;99.90
8780;DHT22;62328;51.19929245;4.42130175;2022-09-09T12:27:31;19.20;99.90
8780;DHT22;62328;51.19929245;4.42130175;2022-09-09T12:30:03;19.20;99.90
8780;DHT22;62328;51.19929245;4.42130175;2022-09-09T12:32:30;19.20;99.90
8780;DHT22;62328;51.19929245;4.42130175;2022-09-09T12:35:03;19.10;99.90
8780;DHT22;62328;51.19929245;4.42130175;2022-09-09T12:37:34;19.10;99.90
8780;DHT22;62328;51.19929245;4.42130175;2022-09-09T12:40:04;19.20;99.90
8780;DHT22;62328;51.19929245;4.42130175;2022-09-09T12:42:32;19.30;99.90
8780;DHT22;62328;51.19929245;4.42130175;2022-09-09T12:45:01;19.40;99.90
8780;DHT22;62328;51.19929245;4.42130175;2022-09-09T12:47:38;19.30;99.90
8780;DHT22;62328;51.19929245;4.42130175;2022-09-09T12:50:19;19.30;99.90
8780;DHT22;62328;51.19929245;4.42130175;2022-09-09T12:52:48;19.30;99.90
8780;DHT22;62328;51.19929245;4.42130175;2022-09-09T12:55:19;19.20;99.90
8780;DHT22;62328;51.19929245;4.42130175;2022-09-09T12:57:48;19.20;99.90
8780;DHT22;62328;51.19929245;4.42130175;2022-09-09T13:00:18;19.20;99.90
8780;DHT22;62328;51.19929245;4.42130175;2022-09-09T13:02:49;19.20;99.90
8780;DHT22;62328;51.19929245;4.42130175;2022-09-09T13:05:21;19.40;99.90
8780;DHT22;62328;51.19929245;4.42130175;2022-09-09T13:07:49;19.60;99.90
8780;DHT22;62328;51.19929245;4.42130175;2022-09-09T13:10:22;19.80;99.90
8780;DHT22;62328;51.19929245;4.42130175;2022-09-09T13:12:52;19.90;99.90
8780;DHT22;62328;51.19929245;4.42130175;2022-09-09T13:15:21;20.00;99.90
8780;DHT22;62328;51.19929245;4.42130175;2022-09-09T13:17:51;20.10;99.90
8780;DHT22;62328;51.19929245;4.42130175;2022-09-09T13:23:56;20.00;99.90
8780;DHT22;62328;51.19929245;4.42130175;2022-09-09T13:26:44;20.00;99.90
8780;DHT22;62328;51.19929245;4.42130175;2022-09-09T13:29:35;19.90;99.90
8780;DHT22;62328;51.19929245;4.42130175;2022-09-09T13:32:06;20.00;99.90
8780;DHT22;62328;51.19929245;4.42130175;2022-09-09T13:34:34;20.20;99.90
8780;DHT22;62328;51.19929245;4.42130175;2022-09-09T13:37:03;20.40;99.90
8780;DHT22;62328;51.19929245;4.42130175;2022-09-09T13:39:34;20.50;99.90
8780;DHT22;62328;51.19929245;4.42130175;2022-09-09T13:42:02;20.50;99.90
8780;DHT22;62328;51.19929245;4.42130175;2022-09-09T13:44:35;20.50;99.90
8780;DHT22;62328;51.19929245;4.42130175;2022-09-09T13:47:05;20.40;99.90
8780;DHT22;62328;51.19929245;4.42130175;2022-09-09T13:49:32;20.40;99.90
8780;DHT22;62328;51.19929245;4.42130175;2022-09-09T13:52:04;20.50;99.90
8780;DHT22;62328;51.19929245;4.42130175;2022-09-09T13:54:34;20.70;99.90
8780;DHT22;62328;51.19929245;4.42130175;2022-09-09T13:57:02;20.70;99.90
8780;DHT22;62328;51.19929245;4.42130175;2022-09-09T13:59:30;20.70;99.90
8780;DHT22;62328;51.19929245;4.42130175;2022-09-09T14:01:57;20.70;99.90
8780;DHT22;62328;51.19929245;4.42130175;2022-09-09T14:04:24;20.70;99.90
8780;DHT22;62328;51.19929245;4.42130175;2022-09-09T14:06:51;20.60;99.90